sensor_id;sensor_type;location;lat;lon;timestamp;P1;durP1;ratioP1;P2;durP2;ratioP2
7669;SDS011;3877;42.562;27.636;2023-05-02T00:02:01;3.53;;;2.40;;
7669;SDS011;3877;42.562;27.636;2023-05-02T00:04:28;7.37;;;2.90;;
7669;SDS011;3877;42.562;27.636;2023-05-02T00:06:55;8.10;;;3.83;;
7669;SDS011;3877;42.562;27.636;2023-05-02T00:09:22;5.00;;;2.80;;
7669;SDS011;3877;42.562;27.636;2023-05-02T00:11:48;8.00;;;2.93;;
7669;SDS011;3877;42.562;27.636;2023-05-02T00:14:15;10.53;;;2.87;;
7669;SDS011;3877;42.562;27.636;2023-05-02T00:16:42;6.73;;;2.60;;
7669;SDS011;3877;42.562;27.636;2023-05-02T00:19:10;5.40;;;2.93;;
7669;SDS011;3877;42.562;27.636;2023-05-02T00:21:38;4.00;;;2.93;;
7669;SDS011;3877;42.562;27.636;2023-05-02T00:24:05;4.07;;;3.07;;
7669;SDS011;3877;42.562;27.636;2023-05-02T00:26:32;5.43;;;3.37;;
7669;SDS011;3877;42.562;27.636;2023-05-02T00:28:59;4.40;;;3.10;;
7669;SDS011;3877;42.562;27.636;2023-05-02T00:31:26;7.13;;;3.33;;
7669;SDS011;3877;42.562;27.636;2023-05-02T00:33:53;5.17;;;3.20;;
7669;SDS011;3877;42.562;27.636;2023-05-02T00:36:21;5.60;;;2.90;;
7669;SDS011;3877;42.562;27.636;2023-05-02T00:38:47;4.60;;;3.10;;
7669;SDS011;3877;42.562;27.636;2023-05-02T00:41:15;3.57;;;3.10;;
7669;SDS011;3877;42.562;27.636;2023-05-02T00:43:42;5.10;;;3.20;;
7669;SDS011;3877;42.562;27.636;2023-05-02T00:46:09;5.23;;;3.17;;
7669;SDS011;3877;42.562;27.636;2023-05-02T00:48:37;7.20;;;3.30;;
7669;SDS011;3877;42.562;27.636;2023-05-02T00:51:04;8.70;;;3.73;;
7669;SDS011;3877;42.562;27.636;2023-05-02T00:53:34;7.77;;;3.40;;
7669;SDS011;3877;42.562;27.636;2023-05-02T00:56:01;7.87;;;3.70;;
7669;SDS011;3877;42.562;27.636;2023-05-02T00:58:28;10.70;;;4.20;;
7669;SDS011;3877;42.562;27.636;2023-05-02T01:00:58;4.80;;;3.77;;
7669;SDS011;3877;42.562;27.636;2023-05-02T01:03:31;5.97;;;3.70;;
7669;SDS011;3877;42.562;27.636;2023-05-02T01:06:03;5.00;;;3.40;;
7669;SDS011;3877;42.562;27.636;2023-05-02T01:08:37;7.87;;;4.57;;
7669;SDS011;3877;42.562;27.636;2023-05-02T01:11:08;6.93;;;5.10;;
7669;SDS011;3877;42.562;27.636;2023-05-02T01:13:39;8.83;;;5.53;;
7669;SDS011;3877;42.562;27.636;2023-05-02T01:16:08;8.53;;;4.83;;
7669;SDS011;3877;42.562;27.636;2023-05-02T01:18:36;7.43;;;4.90;;
7669;SDS011;3877;42.562;27.636;2023-05-02T01:21:05;6.93;;;5.10;;
7669;SDS011;3877;42.562;27.636;2023-05-02T01:23:37;7.93;;;4.87;;
7669;SDS011;3877;42.562;27.636;2023-05-02T01:26:11;5.90;;;4.60;;
7669;SDS011;3877;42.562;27.636;2023-05-02T01:28:47;6.43;;;5.07;;
7669;SDS011;3877;42.562;27.636;2023-05-02T01:31:15;7.20;;;4.80;;
7669;SDS011;3877;42.562;27.636;2023-05-02T01:33:42;8.73;;;4.90;;
7669;SDS011;3877;42.562;27.636;2023-05-02T01:36:10;10.10;;;5.23;;
7669;SDS011;3877;42.562;27.636;2023-05-02T01:38:37;8.10;;;5.20;;
7669;SDS011;3877;42.562;27.636;2023-05-02T01:41:05;11.03;;;5.53;;
7669;SDS011;3877;42.562;27.636;2023-05-02T01:43:32;8.03;;;5.70;;
7669;SDS011;3877;42.562;27.636;2023-05-02T01:46:01;7.20;;;5.20;;
7669;SDS011;3877;42.562;27.636;2023-05-02T01:48:30;7.60;;;5.70;;
7669;SDS011;3877;42.562;27.636;2023-05-02T01:50:57;10.07;;;5.83;;
7669;SDS011;3877;42.562;27.636;2023-05-02T01:53:24;8.63;;;6.17;;
7669;SDS011;3877;42.562;27.636;2023-05-02T01:55:51;8.07;;;6.15;;
7669;SDS011;3877;42.562;27.636;2023-05-02T01:58:20;9.68;;;6.40;;
7669;SDS011;3877;42.562;27.636;2023-05-02T02:00:47;9.95;;;6.50;;
7669;SDS011;3877;42.562;27.636;2023-05-02T02:03:16;9.30;;;6.10;;
7669;SDS011;3877;42.562;27.636;2023-05-02T02:05:43;14.77;;;6.50;;
7669;SDS011;3877;42.562;27.636;2023-05-02T02:08:11;8.80;;;6.07;;
7669;SDS011;3877;42.562;27.636;2023-05-02T02:10:39;13.13;;;6.77;;
7669;SDS011;3877;42.562;27.636;2023-05-02T02:13:06;10.63;;;6.60;;
7669;SDS011;3877;42.562;27.636;2023-05-02T02:15:38;10.50;;;6.88;;
7669;SDS011;3877;42.562;27.636;2023-05-02T02:18:07;9.52;;;6.63;;
7669;SDS011;3877;42.562;27.636;2023-05-02T02:20:37;10.00;;;6.75;;
7669;SDS011;3877;42.562;27.636;2023-05-02T02:23:05;13.07;;;7.50;;
7669;SDS011;3877;42.562;27.636;2023-05-02T02:25:32;10.50;;;7.20;;
7669;SDS011;3877;42.562;27.636;2023-05-02T02:28:00;9.57;;;7.67;;
7669;SDS011;3877;42.562;27.636;2023-05-02T02:30:27;10.27;;;7.53;;
7669;SDS011;3877;42.562;27.636;2023-05-02T02:32:53;11.03;;;8.30;;
7669;SDS011;3877;42.562;27.636;2023-05-02T02:35:20;15.77;;;9.17;;
7669;SDS011;3877;42.562;27.636;2023-05-02T02:37:50;13.32;;;8.80;;
7669;SDS011;3877;42.562;27.636;2023-05-02T02:40:20;10.30;;;8.60;;
7669;SDS011;3877;42.562;27.636;2023-05-02T02:42:51;13.53;;;8.67;;
7669;SDS011;3877;42.562;27.636;2023-05-02T02:45:24;9.87;;;8.23;;
7669;SDS011;3877;42.562;27.636;2023-05-02T02:47:55;11.33;;;8.13;;
7669;SDS011;3877;42.562;27.636;2023-05-02T02:50:29;11.93;;;8.97;;
7669;SDS011;3877;42.562;27.636;2023-05-02T02:52:59;11.30;;;8.70;;
7669;SDS011;3877;42.562;27.636;2023-05-02T02:55:35;15.00;;;8.40;;
7669;SDS011;3877;42.562;27.636;2023-05-02T02:58:06;12.77;;;8.63;;
7669;SDS011;3877;42.562;27.636;2023-05-02T03:00:34;11.07;;;8.83;;
7669;SDS011;3877;42.562;27.636;2023-05-02T03:03:01;11.32;;;7.63;;
7669;SDS011;3877;42.562;27.636;2023-05-02T03:05:28;12.50;;;8.57;;
7669;SDS011;3877;42.562;27.636;2023-05-02T03:07:59;12.63;;;7.72;;
7669;SDS011;3877;42.562;27.636;2023-05-02T03:10:26;11.83;;;8.50;;
7669;SDS011;3877;42.562;27.636;2023-05-02T03:12:53;11.10;;;8.27;;
7669;SDS011;3877;42.562;27.636;2023-05-02T03:15:49;12.00;;;8.97;;
7669;SDS011;3877;42.562;27.636;2023-05-02T03:18:26;23.07;;;11.47;;
7669;SDS011;3877;42.562;27.636;2023-05-02T03:20:53;13.20;;;9.60;;
7669;SDS011;3877;42.562;27.636;2023-05-02T03:23:21;15.30;;;9.83;;
7669;SDS011;3877;42.562;27.636;2023-05-02T03:25:48;14.93;;;10.77;;
7669;SDS011;3877;42.562;27.636;2023-05-02T03:28:15;19.87;;;13.23;;
7669;SDS011;3877;42.562;27.636;2023-05-02T03:30:42;18.70;;;12.43;;
7669;SDS011;3877;42.562;27.636;2023-05-02T03:33:09;13.63;;;9.47;;
7669;SDS011;3877;42.562;27.636;2023-05-02T03:35:36;13.37;;;9.23;;
7669;SDS011;3877;42.562;27.636;2023-05-02T03:38:03;8.87;;;6.90;;
7669;SDS011;3877;42.562;27.636;2023-05-02T03:40:31;10.13;;;6.13;;
7669;SDS011;3877;42.562;27.636;2023-05-02T03:42:58;6.40;;;5.60;;
7669;SDS011;3877;42.562;27.636;2023-05-02T03:45:24;9.40;;;5.27;;
7669;SDS011;3877;42.562;27.636;2023-05-02T03:47:52;7.63;;;4.68;;
7669;SDS011;3877;42.562;27.636;2023-05-02T03:50:18;7.97;;;5.10;;
7669;SDS011;3877;42.562;27.636;2023-05-02T03:52:45;7.35;;;4.90;;
7669;SDS011;3877;42.562;27.636;2023-05-02T03:55:12;6.83;;;4.80;;
7669;SDS011;3877;42.562;27.636;2023-05-02T03:57:41;8.83;;;4.67;;
7669;SDS011;3877;42.562;27.636;2023-05-02T04:00:08;8.20;;;4.23;;
7669;SDS011;3877;42.562;27.636;2023-05-02T04:02:35;7.37;;;3.90;;
7669;SDS011;3877;42.562;27.636;2023-05-02T04:05:02;5.90;;;4.00;;
7669;SDS011;3877;42.562;27.636;2023-05-02T04:07:29;6.07;;;3.77;;
7669;SDS011;3877;42.562;27.636;2023-05-02T04:09:55;7.53;;;3.97;;
7669;SDS011;3877;42.562;27.636;2023-05-02T04:12:22;6.33;;;3.77;;
7669;SDS011;3877;42.562;27.636;2023-05-02T04:14:50;10.65;;;4.00;;
7669;SDS011;3877;42.562;27.636;2023-05-02T04:17:17;5.87;;;3.47;;
7669;SDS011;3877;42.562;27.636;2023-05-02T04:19:44;5.88;;;3.90;;
7669;SDS011;3877;42.562;27.636;2023-05-02T04:22:11;5.80;;;3.45;;
7669;SDS011;3877;42.562;27.636;2023-05-02T04:24:38;6.00;;;4.10;;
7669;SDS011;3877;42.562;27.636;2023-05-02T04:27:04;6.45;;;3.72;;
7669;SDS011;3877;42.562;27.636;2023-05-02T04:29:32;6.40;;;3.28;;
7669;SDS011;3877;42.562;27.636;2023-05-02T04:32:00;4.55;;;3.72;;
7669;SDS011;3877;42.562;27.636;2023-05-02T04:34:27;6.67;;;3.77;;
7669;SDS011;3877;42.562;27.636;2023-05-02T04:36:53;7.10;;;4.10;;
7669;SDS011;3877;42.562;27.636;2023-05-02T04:39:20;7.07;;;3.65;;
7669;SDS011;3877;42.562;27.636;2023-05-02T04:41:47;6.10;;;3.45;;
7669;SDS011;3877;42.562;27.636;2023-05-02T04:44:14;6.45;;;3.97;;
7669;SDS011;3877;42.562;27.636;2023-05-02T04:46:41;10.15;;;4.40;;
7669;SDS011;3877;42.562;27.636;2023-05-02T04:49:09;5.15;;;3.53;;
7669;SDS011;3877;42.562;27.636;2023-05-02T04:51:36;7.45;;;4.38;;
7669;SDS011;3877;42.562;27.636;2023-05-02T04:54:03;7.13;;;4.45;;
7669;SDS011;3877;42.562;27.636;2023-05-02T04:56:29;22.83;;;18.35;;
7669;SDS011;3877;42.562;27.636;2023-05-02T04:58:56;7.05;;;5.45;;
7669;SDS011;3877;42.562;27.636;2023-05-02T05:01:23;9.90;;;5.78;;
7669;SDS011;3877;42.562;27.636;2023-05-02T05:03:52;11.10;;;6.90;;
7669;SDS011;3877;42.562;27.636;2023-05-02T05:06:20;12.73;;;11.43;;
7669;SDS011;3877;42.562;27.636;2023-05-02T05:08:47;15.18;;;6.70;;
7669;SDS011;3877;42.562;27.636;2023-05-02T05:11:14;12.63;;;6.97;;
7669;SDS011;3877;42.562;27.636;2023-05-02T05:13:41;10.30;;;7.63;;
7669;SDS011;3877;42.562;27.636;2023-05-02T05:16:08;13.85;;;7.32;;
7669;SDS011;3877;42.562;27.636;2023-05-02T05:18:35;15.75;;;11.10;;
7669;SDS011;3877;42.562;27.636;2023-05-02T05:21:04;16.58;;;9.02;;
7669;SDS011;3877;42.562;27.636;2023-05-02T05:23:33;16.25;;;11.25;;
7669;SDS011;3877;42.562;27.636;2023-05-02T05:26:07;18.92;;;13.13;;
7669;SDS011;3877;42.562;27.636;2023-05-02T05:28:34;24.50;;;8.82;;
7669;SDS011;3877;42.562;27.636;2023-05-02T05:31:03;11.13;;;8.50;;
7669;SDS011;3877;42.562;27.636;2023-05-02T05:33:30;16.08;;;9.05;;
7669;SDS011;3877;42.562;27.636;2023-05-02T05:36:02;15.45;;;9.93;;
7669;SDS011;3877;42.562;27.636;2023-05-02T05:38:28;20.02;;;10.55;;
7669;SDS011;3877;42.562;27.636;2023-05-02T05:40:57;9.60;;;8.30;;
7669;SDS011;3877;42.562;27.636;2023-05-02T05:43:23;28.20;;;10.38;;
7669;SDS011;3877;42.562;27.636;2023-05-02T05:45:51;9.82;;;7.05;;
7669;SDS011;3877;42.562;27.636;2023-05-02T05:48:18;11.82;;;7.30;;
7669;SDS011;3877;42.562;27.636;2023-05-02T05:50:45;12.98;;;7.22;;
7669;SDS011;3877;42.562;27.636;2023-05-02T05:53:12;13.63;;;6.88;;
7669;SDS011;3877;42.562;27.636;2023-05-02T05:55:38;11.15;;;6.80;;
7669;SDS011;3877;42.562;27.636;2023-05-02T05:58:07;11.50;;;5.88;;
7669;SDS011;3877;42.562;27.636;2023-05-02T06:00:34;14.90;;;6.50;;
7669;SDS011;3877;42.562;27.636;2023-05-02T06:03:01;10.90;;;6.63;;
7669;SDS011;3877;42.562;27.636;2023-05-02T06:05:29;11.27;;;6.35;;
7669;SDS011;3877;42.562;27.636;2023-05-02T06:07:56;7.63;;;5.90;;
7669;SDS011;3877;42.562;27.636;2023-05-02T06:10:22;8.38;;;5.65;;
7669;SDS011;3877;42.562;27.636;2023-05-02T06:12:50;8.48;;;5.47;;
7669;SDS011;3877;42.562;27.636;2023-05-02T06:15:18;11.88;;;6.25;;
7669;SDS011;3877;42.562;27.636;2023-05-02T06:17:44;8.30;;;6.18;;
7669;SDS011;3877;42.562;27.636;2023-05-02T06:20:11;8.13;;;5.78;;
7669;SDS011;3877;42.562;27.636;2023-05-02T06:22:38;11.50;;;6.05;;
7669;SDS011;3877;42.562;27.636;2023-05-02T06:25:05;12.82;;;6.47;;
7669;SDS011;3877;42.562;27.636;2023-05-02T06:27:33;11.38;;;6.35;;
7669;SDS011;3877;42.562;27.636;2023-05-02T06:30:00;11.05;;;5.93;;
7669;SDS011;3877;42.562;27.636;2023-05-02T06:32:30;9.68;;;6.25;;
7669;SDS011;3877;42.562;27.636;2023-05-02T06:34:57;8.77;;;6.18;;
7669;SDS011;3877;42.562;27.636;2023-05-02T06:37:23;9.63;;;6.57;;
7669;SDS011;3877;42.562;27.636;2023-05-02T06:39:50;16.05;;;6.63;;
7669;SDS011;3877;42.562;27.636;2023-05-02T06:42:17;12.88;;;6.50;;
7669;SDS011;3877;42.562;27.636;2023-05-02T06:44:44;14.88;;;6.93;;
7669;SDS011;3877;42.562;27.636;2023-05-02T06:47:11;10.65;;;6.97;;
7669;SDS011;3877;42.562;27.636;2023-05-02T06:49:39;9.85;;;6.30;;
7669;SDS011;3877;42.562;27.636;2023-05-02T06:52:06;11.15;;;6.30;;
7669;SDS011;3877;42.562;27.636;2023-05-02T06:54:33;8.43;;;6.47;;
7669;SDS011;3877;42.562;27.636;2023-05-02T06:57:00;13.32;;;6.25;;
7669;SDS011;3877;42.562;27.636;2023-05-02T06:59:27;11.15;;;6.32;;
7669;SDS011;3877;42.562;27.636;2023-05-02T07:01:54;13.88;;;6.43;;
7669;SDS011;3877;42.562;27.636;2023-05-02T07:04:21;10.93;;;6.00;;
7669;SDS011;3877;42.562;27.636;2023-05-02T07:06:49;18.02;;;6.53;;
7669;SDS011;3877;42.562;27.636;2023-05-02T07:09:16;15.63;;;7.10;;
7669;SDS011;3877;42.562;27.636;2023-05-02T07:11:43;12.57;;;6.65;;
7669;SDS011;3877;42.562;27.636;2023-05-02T07:14:10;11.43;;;6.85;;
7669;SDS011;3877;42.562;27.636;2023-05-02T07:16:37;11.35;;;6.25;;
7669;SDS011;3877;42.562;27.636;2023-05-02T07:19:04;9.23;;;6.40;;
7669;SDS011;3877;42.562;27.636;2023-05-02T07:21:31;11.90;;;6.03;;
7669;SDS011;3877;42.562;27.636;2023-05-02T07:23:59;11.55;;;6.28;;
7669;SDS011;3877;42.562;27.636;2023-05-02T07:26:26;16.30;;;6.00;;
7669;SDS011;3877;42.562;27.636;2023-05-02T07:28:53;16.50;;;6.32;;
7669;SDS011;3877;42.562;27.636;2023-05-02T07:31:20;9.05;;;6.30;;
7669;SDS011;3877;42.562;27.636;2023-05-02T07:33:47;7.85;;;6.40;;
7669;SDS011;3877;42.562;27.636;2023-05-02T07:36:13;8.57;;;5.80;;
7669;SDS011;3877;42.562;27.636;2023-05-02T07:38:41;9.23;;;5.53;;
7669;SDS011;3877;42.562;27.636;2023-05-02T07:41:09;11.95;;;5.30;;
7669;SDS011;3877;42.562;27.636;2023-05-02T07:43:36;12.98;;;5.80;;
7669;SDS011;3877;42.562;27.636;2023-05-02T07:46:03;14.52;;;5.95;;
7669;SDS011;3877;42.562;27.636;2023-05-02T07:48:31;40.88;;;9.90;;
7669;SDS011;3877;42.562;27.636;2023-05-02T07:51:04;15.20;;;5.93;;
7669;SDS011;3877;42.562;27.636;2023-05-02T07:53:31;5.35;;;3.30;;
7669;SDS011;3877;42.562;27.636;2023-05-02T07:55:58;10.23;;;3.20;;
7669;SDS011;3877;42.562;27.636;2023-05-02T07:58:26;7.68;;;3.10;;
7669;SDS011;3877;42.562;27.636;2023-05-02T08:00:53;9.18;;;3.17;;
7669;SDS011;3877;42.562;27.636;2023-05-02T08:03:20;11.52;;;2.80;;
7669;SDS011;3877;42.562;27.636;2023-05-02T08:05:47;6.53;;;2.90;;
7669;SDS011;3877;42.562;27.636;2023-05-02T08:08:14;5.60;;;3.10;;
7669;SDS011;3877;42.562;27.636;2023-05-02T08:10:40;16.48;;;5.35;;
7669;SDS011;3877;42.562;27.636;2023-05-02T08:13:07;10.55;;;3.65;;
7669;SDS011;3877;42.562;27.636;2023-05-02T08:15:35;12.95;;;4.72;;
7669;SDS011;3877;42.562;27.636;2023-05-02T08:18:02;27.55;;;4.63;;
7669;SDS011;3877;42.562;27.636;2023-05-02T08:20:29;14.90;;;3.40;;
7669;SDS011;3877;42.562;27.636;2023-05-02T08:22:56;6.78;;;2.95;;
7669;SDS011;3877;42.562;27.636;2023-05-02T08:25:23;8.15;;;3.13;;
7669;SDS011;3877;42.562;27.636;2023-05-02T08:27:49;5.47;;;2.90;;
7669;SDS011;3877;42.562;27.636;2023-05-02T08:30:16;4.88;;;2.53;;
7669;SDS011;3877;42.562;27.636;2023-05-02T08:32:45;6.22;;;2.25;;
7669;SDS011;3877;42.562;27.636;2023-05-02T08:35:12;4.72;;;3.00;;
7669;SDS011;3877;42.562;27.636;2023-05-02T08:37:39;7.38;;;2.92;;
7669;SDS011;3877;42.562;27.636;2023-05-02T08:40:07;3.97;;;2.60;;
7669;SDS011;3877;42.562;27.636;2023-05-02T08:42:36;7.47;;;2.67;;
7669;SDS011;3877;42.562;27.636;2023-05-02T08:45:07;6.22;;;2.75;;
7669;SDS011;3877;42.562;27.636;2023-05-02T08:47:34;4.00;;;2.80;;
7669;SDS011;3877;42.562;27.636;2023-05-02T08:50:04;6.18;;;2.42;;
7669;SDS011;3877;42.562;27.636;2023-05-02T08:52:31;8.25;;;3.35;;
7669;SDS011;3877;42.562;27.636;2023-05-02T08:54:58;6.43;;;3.33;;
7669;SDS011;3877;42.562;27.636;2023-05-02T08:57:27;8.35;;;2.83;;
7669;SDS011;3877;42.562;27.636;2023-05-02T08:59:54;8.52;;;3.10;;
7669;SDS011;3877;42.562;27.636;2023-05-02T09:02:22;7.13;;;2.70;;
7669;SDS011;3877;42.562;27.636;2023-05-02T09:04:53;4.68;;;3.53;;
7669;SDS011;3877;42.562;27.636;2023-05-02T09:07:21;3.38;;;2.95;;
7669;SDS011;3877;42.562;27.636;2023-05-02T09:09:48;8.60;;;2.80;;
7669;SDS011;3877;42.562;27.636;2023-05-02T09:12:15;10.85;;;3.75;;
7669;SDS011;3877;42.562;27.636;2023-05-02T09:14:42;6.68;;;3.25;;
7669;SDS011;3877;42.562;27.636;2023-05-02T09:17:09;4.70;;;3.70;;
7669;SDS011;3877;42.562;27.636;2023-05-02T09:19:36;6.97;;;3.85;;
7669;SDS011;3877;42.562;27.636;2023-05-02T09:22:03;11.07;;;4.40;;
7669;SDS011;3877;42.562;27.636;2023-05-02T09:24:31;11.77;;;3.70;;
7669;SDS011;3877;42.562;27.636;2023-05-02T09:26:59;9.50;;;3.53;;
7669;SDS011;3877;42.562;27.636;2023-05-02T09:29:27;8.75;;;3.70;;
7669;SDS011;3877;42.562;27.636;2023-05-02T09:31:55;5.75;;;3.67;;
7669;SDS011;3877;42.562;27.636;2023-05-02T09:34:22;7.18;;;3.75;;
7669;SDS011;3877;42.562;27.636;2023-05-02T09:36:49;6.82;;;3.30;;
7669;SDS011;3877;42.562;27.636;2023-05-02T09:39:19;4.78;;;3.15;;
7669;SDS011;3877;42.562;27.636;2023-05-02T09:41:47;7.22;;;3.15;;
7669;SDS011;3877;42.562;27.636;2023-05-02T09:44:14;6.28;;;3.10;;
7669;SDS011;3877;42.562;27.636;2023-05-02T09:46:43;6.13;;;3.53;;
7669;SDS011;3877;42.562;27.636;2023-05-02T09:49:10;5.38;;;3.00;;
7669;SDS011;3877;42.562;27.636;2023-05-02T09:51:39;9.73;;;4.75;;
7669;SDS011;3877;42.562;27.636;2023-05-02T09:54:08;5.93;;;3.67;;
7669;SDS011;3877;42.562;27.636;2023-05-02T09:59:18;10.00;;;4.45;;
7669;SDS011;3877;42.562;27.636;2023-05-02T10:01:44;6.82;;;3.88;;
7669;SDS011;3877;42.562;27.636;2023-05-02T10:04:12;6.32;;;4.63;;
7669;SDS011;3877;42.562;27.636;2023-05-02T10:06:40;10.75;;;4.53;;
7669;SDS011;3877;42.562;27.636;2023-05-02T10:09:08;7.25;;;4.43;;
7669;SDS011;3877;42.562;27.636;2023-05-02T10:11:36;6.25;;;4.30;;
7669;SDS011;3877;42.562;27.636;2023-05-02T10:14:04;12.75;;;7.20;;
7669;SDS011;3877;42.562;27.636;2023-05-02T10:16:32;13.45;;;6.03;;
7669;SDS011;3877;42.562;27.636;2023-05-02T10:19:02;18.77;;;9.30;;
7669;SDS011;3877;42.562;27.636;2023-05-02T10:21:29;21.27;;;7.55;;
7669;SDS011;3877;42.562;27.636;2023-05-02T10:23:56;12.27;;;6.22;;
7669;SDS011;3877;42.562;27.636;2023-05-02T10:26:24;15.48;;;6.20;;
7669;SDS011;3877;42.562;27.636;2023-05-02T10:28:52;10.00;;;5.80;;
7669;SDS011;3877;42.562;27.636;2023-05-02T10:31:19;8.15;;;5.68;;
7669;SDS011;3877;42.562;27.636;2023-05-02T10:33:48;9.55;;;5.35;;
7669;SDS011;3877;42.562;27.636;2023-05-02T10:36:21;7.50;;;5.00;;
7669;SDS011;3877;42.562;27.636;2023-05-02T10:38:47;6.90;;;4.90;;
7669;SDS011;3877;42.562;27.636;2023-05-02T10:41:15;7.10;;;5.07;;
7669;SDS011;3877;42.562;27.636;2023-05-02T10:43:44;7.03;;;5.13;;
7669;SDS011;3877;42.562;27.636;2023-05-02T10:46:30;7.85;;;4.45;;
7669;SDS011;3877;42.562;27.636;2023-05-02T10:49:03;9.40;;;4.50;;
7669;SDS011;3877;42.562;27.636;2023-05-02T10:51:30;7.15;;;3.85;;
7669;SDS011;3877;42.562;27.636;2023-05-02T10:59:27;6.97;;;3.60;;
7669;SDS011;3877;42.562;27.636;2023-05-02T11:01:55;6.57;;;2.78;;
7669;SDS011;3877;42.562;27.636;2023-05-02T11:04:23;6.57;;;2.95;;
7669;SDS011;3877;42.562;27.636;2023-05-02T11:09:36;5.47;;;3.03;;
7669;SDS011;3877;42.562;27.636;2023-05-02T11:12:02;10.63;;;6.32;;
7669;SDS011;3877;42.562;27.636;2023-05-02T11:14:43;5.53;;;2.60;;
7669;SDS011;3877;42.562;27.636;2023-05-02T11:17:12;4.18;;;2.92;;
7669;SDS011;3877;42.562;27.636;2023-05-02T11:22:33;3.50;;;2.85;;
7669;SDS011;3877;42.562;27.636;2023-05-02T11:25:00;5.38;;;2.80;;
7669;SDS011;3877;42.562;27.636;2023-05-02T11:27:36;4.95;;;2.80;;
7669;SDS011;3877;42.562;27.636;2023-05-02T11:30:03;3.60;;;2.72;;
7669;SDS011;3877;42.562;27.636;2023-05-02T11:35:14;5.43;;;3.38;;
7669;SDS011;3877;42.562;27.636;2023-05-02T11:37:42;7.85;;;3.10;;
7669;SDS011;3877;42.562;27.636;2023-05-02T11:40:10;8.43;;;3.63;;
7669;SDS011;3877;42.562;27.636;2023-05-02T11:42:37;3.97;;;3.22;;
7669;SDS011;3877;42.562;27.636;2023-05-02T11:45:04;7.03;;;3.60;;
7669;SDS011;3877;42.562;27.636;2023-05-02T11:47:31;8.55;;;3.60;;
7669;SDS011;3877;42.562;27.636;2023-05-02T11:50:02;4.43;;;2.80;;
7669;SDS011;3877;42.562;27.636;2023-05-02T11:52:29;5.53;;;3.17;;
7669;SDS011;3877;42.562;27.636;2023-05-02T11:54:58;4.13;;;3.10;;
7669;SDS011;3877;42.562;27.636;2023-05-02T11:57:25;6.35;;;2.83;;
7669;SDS011;3877;42.562;27.636;2023-05-02T11:59:52;7.68;;;3.15;;
7669;SDS011;3877;42.562;27.636;2023-05-02T12:02:19;4.85;;;3.00;;
7669;SDS011;3877;42.562;27.636;2023-05-02T12:04:46;6.90;;;2.60;;
7669;SDS011;3877;42.562;27.636;2023-05-02T12:07:14;6.63;;;3.45;;
7669;SDS011;3877;42.562;27.636;2023-05-02T12:09:50;6.72;;;2.97;;
7669;SDS011;3877;42.562;27.636;2023-05-02T12:12:20;5.32;;;3.63;;
7669;SDS011;3877;42.562;27.636;2023-05-02T12:14:47;5.20;;;3.60;;
7669;SDS011;3877;42.562;27.636;2023-05-02T12:17:14;4.82;;;3.05;;
7669;SDS011;3877;42.562;27.636;2023-05-02T12:19:41;7.03;;;2.85;;
7669;SDS011;3877;42.562;27.636;2023-05-02T12:22:08;4.45;;;2.92;;
7669;SDS011;3877;42.562;27.636;2023-05-02T12:24:35;4.47;;;3.38;;
7669;SDS011;3877;42.562;27.636;2023-05-02T12:27:09;11.13;;;3.60;;
7669;SDS011;3877;42.562;27.636;2023-05-02T12:29:41;8.38;;;3.08;;
7669;SDS011;3877;42.562;27.636;2023-05-02T12:32:08;5.22;;;2.95;;
7669;SDS011;3877;42.562;27.636;2023-05-02T12:34:35;5.32;;;3.33;;
7669;SDS011;3877;42.562;27.636;2023-05-02T12:37:02;4.63;;;3.00;;
7669;SDS011;3877;42.562;27.636;2023-05-02T12:39:35;5.03;;;3.00;;
7669;SDS011;3877;42.562;27.636;2023-05-02T12:42:09;4.82;;;3.30;;
7669;SDS011;3877;42.562;27.636;2023-05-02T12:44:36;7.05;;;3.08;;
7669;SDS011;3877;42.562;27.636;2023-05-02T12:47:06;4.88;;;3.05;;
7669;SDS011;3877;42.562;27.636;2023-05-02T12:49:33;4.75;;;3.05;;
7669;SDS011;3877;42.562;27.636;2023-05-02T12:52:13;9.88;;;3.45;;
7669;SDS011;3877;42.562;27.636;2023-05-02T12:54:40;5.80;;;3.17;;
7669;SDS011;3877;42.562;27.636;2023-05-02T12:57:07;4.97;;;2.90;;
7669;SDS011;3877;42.562;27.636;2023-05-02T12:59:34;7.47;;;3.30;;
7669;SDS011;3877;42.562;27.636;2023-05-02T13:02:01;5.82;;;3.20;;
7669;SDS011;3877;42.562;27.636;2023-05-02T13:04:35;5.15;;;3.25;;
7669;SDS011;3877;42.562;27.636;2023-05-02T13:07:03;8.90;;;3.30;;
7669;SDS011;3877;42.562;27.636;2023-05-02T13:09:30;5.03;;;3.45;;
7669;SDS011;3877;42.562;27.636;2023-05-02T13:11:57;4.93;;;3.30;;
7669;SDS011;3877;42.562;27.636;2023-05-02T13:14:25;6.05;;;3.28;;
7669;SDS011;3877;42.562;27.636;2023-05-02T13:16:51;5.93;;;3.80;;
7669;SDS011;3877;42.562;27.636;2023-05-02T13:19:19;5.15;;;3.40;;
7669;SDS011;3877;42.562;27.636;2023-05-02T13:21:47;4.60;;;3.30;;
7669;SDS011;3877;42.562;27.636;2023-05-02T13:24:14;5.30;;;3.72;;
7669;SDS011;3877;42.562;27.636;2023-05-02T13:26:41;4.97;;;3.35;;
7669;SDS011;3877;42.562;27.636;2023-05-02T13:29:08;6.72;;;3.55;;
7669;SDS011;3877;42.562;27.636;2023-05-02T13:31:37;6.57;;;3.22;;
7669;SDS011;3877;42.562;27.636;2023-05-02T13:34:03;3.58;;;2.92;;
7669;SDS011;3877;42.562;27.636;2023-05-02T13:36:31;4.63;;;3.55;;
7669;SDS011;3877;42.562;27.636;2023-05-02T13:38:59;4.57;;;3.25;;
7669;SDS011;3877;42.562;27.636;2023-05-02T13:41:26;4.75;;;3.03;;
7669;SDS011;3877;42.562;27.636;2023-05-02T13:43:53;7.72;;;3.03;;
7669;SDS011;3877;42.562;27.636;2023-05-02T13:46:21;9.07;;;3.25;;
7669;SDS011;3877;42.562;27.636;2023-05-02T13:48:48;6.55;;;3.40;;
7669;SDS011;3877;42.562;27.636;2023-05-02T13:51:15;6.10;;;3.65;;
7669;SDS011;3877;42.562;27.636;2023-05-02T13:53:42;9.65;;;3.80;;
7669;SDS011;3877;42.562;27.636;2023-05-02T13:56:10;4.53;;;3.15;;
7669;SDS011;3877;42.562;27.636;2023-05-02T13:58:37;7.80;;;3.75;;
7669;SDS011;3877;42.562;27.636;2023-05-02T14:01:04;10.40;;;3.28;;
7669;SDS011;3877;42.562;27.636;2023-05-02T14:03:30;6.63;;;3.40;;
7669;SDS011;3877;42.562;27.636;2023-05-02T14:05:57;6.00;;;3.33;;
7669;SDS011;3877;42.562;27.636;2023-05-02T14:08:24;8.35;;;3.10;;
7669;SDS011;3877;42.562;27.636;2023-05-02T14:10:52;4.55;;;3.40;;
7669;SDS011;3877;42.562;27.636;2023-05-02T14:13:20;5.40;;;3.13;;
7669;SDS011;3877;42.562;27.636;2023-05-02T14:15:47;8.05;;;3.55;;
7669;SDS011;3877;42.562;27.636;2023-05-02T14:18:13;7.15;;;3.30;;
7669;SDS011;3877;42.562;27.636;2023-05-02T14:20:41;7.22;;;3.17;;
7669;SDS011;3877;42.562;27.636;2023-05-02T14:23:07;10.60;;;4.00;;
7669;SDS011;3877;42.562;27.636;2023-05-02T14:25:34;5.33;;;3.10;;
7669;SDS011;3877;42.562;27.636;2023-05-02T14:28:01;5.63;;;3.45;;
7669;SDS011;3877;42.562;27.636;2023-05-02T14:30:29;3.55;;;3.00;;
7669;SDS011;3877;42.562;27.636;2023-05-02T14:32:56;5.57;;;3.27;;
7669;SDS011;3877;42.562;27.636;2023-05-02T14:35:23;5.72;;;3.08;;
7669;SDS011;3877;42.562;27.636;2023-05-02T14:37:50;4.80;;;2.87;;
7669;SDS011;3877;42.562;27.636;2023-05-02T14:40:17;5.78;;;3.20;;
7669;SDS011;3877;42.562;27.636;2023-05-02T14:42:44;4.90;;;3.22;;
7669;SDS011;3877;42.562;27.636;2023-05-02T14:45:11;7.93;;;3.00;;
7669;SDS011;3877;42.562;27.636;2023-05-02T14:47:39;6.05;;;2.90;;
7669;SDS011;3877;42.562;27.636;2023-05-02T14:50:06;4.20;;;2.90;;
7669;SDS011;3877;42.562;27.636;2023-05-02T14:52:33;4.03;;;2.90;;
7669;SDS011;3877;42.562;27.636;2023-05-02T14:55:00;5.28;;;2.80;;
7669;SDS011;3877;42.562;27.636;2023-05-02T14:57:26;7.33;;;3.10;;
7669;SDS011;3877;42.562;27.636;2023-05-02T14:59:53;6.53;;;3.10;;
7669;SDS011;3877;42.562;27.636;2023-05-02T15:02:20;4.55;;;3.03;;
7669;SDS011;3877;42.562;27.636;2023-05-02T15:04:48;5.32;;;3.50;;
7669;SDS011;3877;42.562;27.636;2023-05-02T15:07:15;6.03;;;3.40;;
7669;SDS011;3877;42.562;27.636;2023-05-02T15:09:42;5.60;;;3.25;;
7669;SDS011;3877;42.562;27.636;2023-05-02T15:12:09;5.65;;;3.90;;
7669;SDS011;3877;42.562;27.636;2023-05-02T15:14:36;7.57;;;3.00;;
7669;SDS011;3877;42.562;27.636;2023-05-02T15:17:03;3.60;;;3.30;;